sensor_id;sensor_type;location;lat;lon;timestamp;temperature;humidity
24252;DHT22;12380;51.118;4.176;2024-01-30T00:02:17;9.80;99.90
24252;DHT22;12380;51.118;4.176;2024-01-30T00:04:42;10.00;99.90
24252;DHT22;12380;51.118;4.176;2024-01-30T00:07:08;10.00;99.90
24252;DHT22;12380;51.118;4.176;2024-01-30T00:09:33;10.10;99.90
24252;DHT22;12380;51.118;4.176;2024-01-30T00:11:59;10.20;99.90
24252;DHT22;12380;51.118;4.176;2024-01-30T00:14:25;10.10;99.90
24252;DHT22;12380;51.118;4.176;2024-01-30T00:16:51;10.10;99.90
24252;DHT22;12380;51.118;4.176;2024-01-30T00:19:16;10.00;99.90
24252;DHT22;12380;51.118;4.176;2024-01-30T00:21:44;10.00;99.90
24252;DHT22;12380;51.118;4.176;2024-01-30T00:24:10;10.00;99.90
24252;DHT22;12380;51.118;4.176;2024-01-30T00:26:35;10.10;99.90
24252;DHT22;12380;51.118;4.176;2024-01-30T00:29:01;10.10;99.90
24252;DHT22;12380;51.118;4.176;2024-01-30T00:31:27;10.10;99.90
24252;DHT22;12380;51.118;4.176;2024-01-30T00:33:52;10.20;99.90
24252;DHT22;12380;51.118;4.176;2024-01-30T00:36:18;10.20;99.90
24252;DHT22;12380;51.118;4.176;2024-01-30T00:38:46;10.30;90.20
24252;DHT22;12380;51.118;4.176;2024-01-30T00:41:12;10.30;99.90
24252;DHT22;12380;51.118;4.176;2024-01-30T00:43:37;10.10;99.90
24252;DHT22;12380;51.118;4.176;2024-01-30T00:46:05;10.20;99.90
24252;DHT22;12380;51.118;4.176;2024-01-30T00:48:31;10.20;99.90
24252;DHT22;12380;51.118;4.176;2024-01-30T00:50:56;10.10;99.90
24252;DHT22;12380;51.118;4.176;2024-01-30T00:53:22;10.10;99.90
24252;DHT22;12380;51.118;4.176;2024-01-30T00:55:48;10.20;99.90
24252;DHT22;12380;51.118;4.176;2024-01-30T00:58:16;10.10;99.90
24252;DHT22;12380;51.118;4.176;2024-01-30T01:00:41;10.00;99.90
24252;DHT22;12380;51.118;4.176;2024-01-30T01:03:07;9.90;99.90
24252;DHT22;12380;51.118;4.176;2024-01-30T01:05:32;9.80;99.90
24252;DHT22;12380;51.118;4.176;2024-01-30T01:07:58;9.80;99.90
24252;DHT22;12380;51.118;4.176;2024-01-30T01:10:24;9.80;99.90
24252;DHT22;12380;51.118;4.176;2024-01-30T01:12:49;9.90;99.90
24252;DHT22;12380;51.118;4.176;2024-01-30T01:15:15;9.90;99.90
24252;DHT22;12380;51.118;4.176;2024-01-30T01:17:43;9.90;99.90
24252;DHT22;12380;51.118;4.176;2024-01-30T01:20:08;9.90;99.90
24252;DHT22;12380;51.118;4.176;2024-01-30T01:22:35;9.90;99.90
24252;DHT22;12380;51.118;4.176;2024-01-30T01:25:01;10.00;99.90
24252;DHT22;12380;51.118;4.176;2024-01-30T01:27:27;10.10;99.90
24252;DHT22;12380;51.118;4.176;2024-01-30T01:29:53;10.10;99.90
24252;DHT22;12380;51.118;4.176;2024-01-30T01:32:18;10.10;99.90
24252;DHT22;12380;51.118;4.176;2024-01-30T01:34:44;9.90;99.90
24252;DHT22;12380;51.118;4.176;2024-01-30T01:37:12;10.00;99.90
24252;DHT22;12380;51.118;4.176;2024-01-30T01:39:37;9.90;99.90
24252;DHT22;12380;51.118;4.176;2024-01-30T01:42:03;9.90;99.90
24252;DHT22;12380;51.118;4.176;2024-01-30T01:44:32;9.80;99.90
24252;DHT22;12380;51.118;4.176;2024-01-30T01:46:57;9.80;99.90
24252;DHT22;12380;51.118;4.176;2024-01-30T01:49:27;9.90;99.90
24252;DHT22;12380;51.118;4.176;2024-01-30T01:51:54;10.10;99.90
24252;DHT22;12380;51.118;4.176;2024-01-30T01:54:21;10.00;99.90
24252;DHT22;12380;51.118;4.176;2024-01-30T01:56:46;9.90;99.90
24252;DHT22;12380;51.118;4.176;2024-01-30T01:59:12;9.70;99.90
24252;DHT22;12380;51.118;4.176;2024-01-30T02:01:38;9.80;99.90
24252;DHT22;12380;51.118;4.176;2024-01-30T02:04:06;9.50;99.90
24252;DHT22;12380;51.118;4.176;2024-01-30T02:06:32;9.40;99.90
24252;DHT22;12380;51.118;4.176;2024-01-30T02:08:58;9.40;99.90
24252;DHT22;12380;51.118;4.176;2024-01-30T02:11:23;9.50;99.90
24252;DHT22;12380;51.118;4.176;2024-01-30T02:13:49;9.30;99.90
24252;DHT22;12380;51.118;4.176;2024-01-30T02:16:17;9.20;99.90
24252;DHT22;12380;51.118;4.176;2024-01-30T02:18:47;9.30;99.90
24252;DHT22;12380;51.118;4.176;2024-01-30T02:21:22;9.50;99.90
24252;DHT22;12380;51.118;4.176;2024-01-30T02:23:48;9.60;99.90
24252;DHT22;12380;51.118;4.176;2024-01-30T02:26:13;9.60;99.90
24252;DHT22;12380;51.118;4.176;2024-01-30T02:28:39;9.70;99.90
24252;DHT22;12380;51.118;4.176;2024-01-30T02:31:05;9.70;99.90
24252;DHT22;12380;51.118;4.176;2024-01-30T02:33:30;9.70;99.90
24252;DHT22;12380;51.118;4.176;2024-01-30T02:35:59;9.70;99.90
24252;DHT22;12380;51.118;4.176;2024-01-30T02:38:24;9.80;99.90
24252;DHT22;12380;51.118;4.176;2024-01-30T02:40:52;9.80;99.90
24252;DHT22;12380;51.118;4.176;2024-01-30T02:43:20;9.70;99.90
24252;DHT22;12380;51.118;4.176;2024-01-30T02:45:48;9.70;99.90
24252;DHT22;12380;51.118;4.176;2024-01-30T02:48:14;9.80;99.90
24252;DHT22;12380;51.118;4.176;2024-01-30T02:50:39;9.80;99.90
24252;DHT22;12380;51.118;4.176;2024-01-30T02:53:07;9.90;99.90
24252;DHT22;12380;51.118;4.176;2024-01-30T02:55:33;10.00;99.90
24252;DHT22;12380;51.118;4.176;2024-01-30T02:57:58;10.00;99.90
24252;DHT22;12380;51.118;4.176;2024-01-30T03:00:24;10.00;99.90
24252;DHT22;12380;51.118;4.176;2024-01-30T03:02:49;10.00;99.90
24252;DHT22;12380;51.118;4.176;2024-01-30T03:05:17;10.00;99.90
24252;DHT22;12380;51.118;4.176;2024-01-30T03:07:45;10.10;99.90
24252;DHT22;12380;51.118;4.176;2024-01-30T03:10:11;10.10;99.90
24252;DHT22;12380;51.118;4.176;2024-01-30T03:12:36;10.30;99.90
24252;DHT22;12380;51.118;4.176;2024-01-30T03:15:02;10.30;99.90
24252;DHT22;12380;51.118;4.176;2024-01-30T03:17:27;10.40;99.90
24252;DHT22;12380;51.118;4.176;2024-01-30T03:19:53;10.30;99.90
24252;DHT22;12380;51.118;4.176;2024-01-30T03:22:19;10.20;99.90
24252;DHT22;12380;51.118;4.176;2024-01-30T03:24:44;10.20;99.90
24252;DHT22;12380;51.118;4.176;2024-01-30T03:27:10;10.30;99.90
24252;DHT22;12380;51.118;4.176;2024-01-30T03:29:40;10.40;99.90
24252;DHT22;12380;51.118;4.176;2024-01-30T03:32:06;10.40;99.90
24252;DHT22;12380;51.118;4.176;2024-01-30T03:34:31;10.40;99.90
24252;DHT22;12380;51.118;4.176;2024-01-30T03:36:57;10.30;99.90
24252;DHT22;12380;51.118;4.176;2024-01-30T03:39:23;10.30;99.90
24252;DHT22;12380;51.118;4.176;2024-01-30T03:41:48;10.30;99.90
24252;DHT22;12380;51.118;4.176;2024-01-30T03:44:14;10.20;99.90
24252;DHT22;12380;51.118;4.176;2024-01-30T03:46:44;10.30;99.90
24252;DHT22;12380;51.118;4.176;2024-01-30T03:49:09;10.30;99.90
24252;DHT22;12380;51.118;4.176;2024-01-30T03:51:35;10.20;99.90
24252;DHT22;12380;51.118;4.176;2024-01-30T03:54:01;10.10;99.90
24252;DHT22;12380;51.118;4.176;2024-01-30T03:56:26;10.10;99.90
24252;DHT22;12380;51.118;4.176;2024-01-30T03:58:52;10.10;99.90
24252;DHT22;12380;51.118;4.176;2024-01-30T04:01:21;10.20;99.90
24252;DHT22;12380;51.118;4.176;2024-01-30T04:03:48;10.20;99.90
24252;DHT22;12380;51.118;4.176;2024-01-30T04:06:16;10.20;99.90
24252;DHT22;12380;51.118;4.176;2024-01-30T04:08:42;10.20;99.90
24252;DHT22;12380;51.118;4.176;2024-01-30T04:11:07;10.30;99.90
24252;DHT22;12380;51.118;4.176;2024-01-30T04:13:33;10.40;99.90
24252;DHT22;12380;51.118;4.176;2024-01-30T04:16:00;10.30;99.90
24252;DHT22;12380;51.118;4.176;2024-01-30T04:18:29;10.30;99.90
24252;DHT22;12380;51.118;4.176;2024-01-30T04:20:54;10.20;99.90
24252;DHT22;12380;51.118;4.176;2024-01-30T04:23:23;10.10;99.90
24252;DHT22;12380;51.118;4.176;2024-01-30T04:25:54;10.20;99.90
24252;DHT22;12380;51.118;4.176;2024-01-30T04:28:20;10.40;99.90
24252;DHT22;12380;51.118;4.176;2024-01-30T04:30:45;10.40;99.90
24252;DHT22;12380;51.118;4.176;2024-01-30T04:33:11;10.30;99.90
24252;DHT22;12380;51.118;4.176;2024-01-30T04:35:39;10.30;99.90
24252;DHT22;12380;51.118;4.176;2024-01-30T04:38:04;10.10;99.90
24252;DHT22;12380;51.118;4.176;2024-01-30T04:40:30;10.10;99.90
24252;DHT22;12380;51.118;4.176;2024-01-30T04:43:03;10.20;99.90
24252;DHT22;12380;51.118;4.176;2024-01-30T04:45:29;10.10;99.90
24252;DHT22;12380;51.118;4.176;2024-01-30T04:47:57;10.20;99.90
24252;DHT22;12380;51.118;4.176;2024-01-30T04:50:23;10.30;99.90
24252;DHT22;12380;51.118;4.176;2024-01-30T04:52:48;10.40;99.90
24252;DHT22;12380;51.118;4.176;2024-01-30T04:55:14;10.40;99.90
24252;DHT22;12380;51.118;4.176;2024-01-30T04:57:39;10.50;99.90
24252;DHT22;12380;51.118;4.176;2024-01-30T05:00:05;10.50;99.90
24252;DHT22;12380;51.118;4.176;2024-01-30T05:02:31;10.40;99.90
24252;DHT22;12380;51.118;4.176;2024-01-30T05:04:57;10.40;99.90
24252;DHT22;12380;51.118;4.176;2024-01-30T05:07:24;10.30;99.90
24252;DHT22;12380;51.118;4.176;2024-01-30T05:09:54;10.30;99.90
24252;DHT22;12380;51.118;4.176;2024-01-30T05:12:26;10.50;99.90
24252;DHT22;12380;51.118;4.176;2024-01-30T05:14:51;10.50;99.90
24252;DHT22;12380;51.118;4.176;2024-01-30T05:17:20;10.50;99.90
24252;DHT22;12380;51.118;4.176;2024-01-30T05:19:47;10.60;99.90
24252;DHT22;12380;51.118;4.176;2024-01-30T05:22:13;10.50;99.90
24252;DHT22;12380;51.118;4.176;2024-01-30T05:24:43;10.50;99.90
24252;DHT22;12380;51.118;4.176;2024-01-30T05:27:09;10.50;99.90
24252;DHT22;12380;51.118;4.176;2024-01-30T05:29:34;10.60;99.90
24252;DHT22;12380;51.118;4.176;2024-01-30T05:32:02;10.40;99.90
24252;DHT22;12380;51.118;4.176;2024-01-30T05:34:31;10.40;99.90
24252;DHT22;12380;51.118;4.176;2024-01-30T05:36:57;10.50;99.90
24252;DHT22;12380;51.118;4.176;2024-01-30T05:39:22;10.50;99.90
24252;DHT22;12380;51.118;4.176;2024-01-30T05:41:48;10.50;99.90
24252;DHT22;12380;51.118;4.176;2024-01-30T05:44:16;10.50;99.90
24252;DHT22;12380;51.118;4.176;2024-01-30T05:46:41;10.50;99.90
24252;DHT22;12380;51.118;4.176;2024-01-30T05:49:09;10.60;99.90
24252;DHT22;12380;51.118;4.176;2024-01-30T05:51:37;10.60;99.90
24252;DHT22;12380;51.118;4.176;2024-01-30T05:54:03;10.60;99.90
24252;DHT22;12380;51.118;4.176;2024-01-30T05:56:34;10.60;99.90
24252;DHT22;12380;51.118;4.176;2024-01-30T05:58:59;10.60;99.90
24252;DHT22;12380;51.118;4.176;2024-01-30T06:01:25;10.50;99.90
24252;DHT22;12380;51.118;4.176;2024-01-30T06:03:51;10.60;99.90
24252;DHT22;12380;51.118;4.176;2024-01-30T06:06:16;10.60;99.90
24252;DHT22;12380;51.118;4.176;2024-01-30T06:08:42;10.50;99.90
24252;DHT22;12380;51.118;4.176;2024-01-30T06:11:10;10.50;99.90
24252;DHT22;12380;51.118;4.176;2024-01-30T06:13:36;10.50;99.90
24252;DHT22;12380;51.118;4.176;2024-01-30T06:16:01;10.50;99.90
24252;DHT22;12380;51.118;4.176;2024-01-30T06:18:27;10.50;99.90
24252;DHT22;12380;51.118;4.176;2024-01-30T06:20:54;10.50;99.90
24252;DHT22;12380;51.118;4.176;2024-01-30T06:23:20;10.50;99.90
24252;DHT22;12380;51.118;4.176;2024-01-30T06:25:47;10.50;99.90
24252;DHT22;12380;51.118;4.176;2024-01-30T06:28:13;10.50;99.90
24252;DHT22;12380;51.118;4.176;2024-01-30T06:30:39;10.50;99.90
24252;DHT22;12380;51.118;4.176;2024-01-30T06:33:04;10.70;99.90
24252;DHT22;12380;51.118;4.176;2024-01-30T06:35:30;10.60;99.90
24252;DHT22;12380;51.118;4.176;2024-01-30T06:37:55;10.50;99.90
24252;DHT22;12380;51.118;4.176;2024-01-30T06:40:23;10.60;99.90
24252;DHT22;12380;51.118;4.176;2024-01-30T06:42:49;10.70;99.90
24252;DHT22;12380;51.118;4.176;2024-01-30T06:45:14;10.70;99.90
24252;DHT22;12380;51.118;4.176;2024-01-30T06:47:40;10.60;99.90
24252;DHT22;12380;51.118;4.176;2024-01-30T06:50:06;10.60;99.90
24252;DHT22;12380;51.118;4.176;2024-01-30T06:52:32;10.70;99.90
24252;DHT22;12380;51.118;4.176;2024-01-30T06:54:57;10.70;99.90
24252;DHT22;12380;51.118;4.176;2024-01-30T06:57:23;10.70;99.90
24252;DHT22;12380;51.118;4.176;2024-01-30T06:59:48;10.60;99.90
24252;DHT22;12380;51.118;4.176;2024-01-30T07:02:14;10.70;99.90
24252;DHT22;12380;51.118;4.176;2024-01-30T07:04:40;10.80;99.90
24252;DHT22;12380;51.118;4.176;2024-01-30T07:07:08;10.70;99.90
24252;DHT22;12380;51.118;4.176;2024-01-30T07:09:37;10.80;99.90
24252;DHT22;12380;51.118;4.176;2024-01-30T07:12:04;10.80;99.90
24252;DHT22;12380;51.118;4.176;2024-01-30T07:14:29;10.80;99.90
24252;DHT22;12380;51.118;4.176;2024-01-30T07:16:55;10.80;99.90
24252;DHT22;12380;51.118;4.176;2024-01-30T07:19:23;10.80;99.90
24252;DHT22;12380;51.118;4.176;2024-01-30T07:21:48;10.90;99.90
24252;DHT22;12380;51.118;4.176;2024-01-30T07:24:14;10.80;99.90
24252;DHT22;12380;51.118;4.176;2024-01-30T07:26:39;10.70;99.90
24252;DHT22;12380;51.118;4.176;2024-01-30T07:29:05;10.70;99.90
24252;DHT22;12380;51.118;4.176;2024-01-30T07:31:31;10.80;99.90
24252;DHT22;12380;51.118;4.176;2024-01-30T07:33:56;10.80;99.90
24252;DHT22;12380;51.118;4.176;2024-01-30T07:36:22;10.80;99.90
24252;DHT22;12380;51.118;4.176;2024-01-30T07:38:48;10.90;99.90
24252;DHT22;12380;51.118;4.176;2024-01-30T07:41:13;10.90;99.90
24252;DHT22;12380;51.118;4.176;2024-01-30T07:43:39;11.00;99.90
24252;DHT22;12380;51.118;4.176;2024-01-30T07:46:04;11.00;99.90
24252;DHT22;12380;51.118;4.176;2024-01-30T07:48:32;11.00;99.90
24252;DHT22;12380;51.118;4.176;2024-01-30T07:50:59;11.00;99.90
24252;DHT22;12380;51.118;4.176;2024-01-30T07:53:25;10.90;99.90
24252;DHT22;12380;51.118;4.176;2024-01-30T07:55:50;11.00;99.90
24252;DHT22;12380;51.118;4.176;2024-01-30T07:58:16;11.10;99.90
24252;DHT22;12380;51.118;4.176;2024-01-30T08:00:44;11.10;99.90
24252;DHT22;12380;51.118;4.176;2024-01-30T08:03:10;11.10;99.90
24252;DHT22;12380;51.118;4.176;2024-01-30T08:05:36;11.20;99.90
24252;DHT22;12380;51.118;4.176;2024-01-30T08:08:01;11.20;99.90
24252;DHT22;12380;51.118;4.176;2024-01-30T08:10:27;11.10;99.90
24252;DHT22;12380;51.118;4.176;2024-01-30T08:12:52;11.10;99.90
24252;DHT22;12380;51.118;4.176;2024-01-30T08:15:18;11.20;99.90
24252;DHT22;12380;51.118;4.176;2024-01-30T08:17:43;11.20;99.90
24252;DHT22;12380;51.118;4.176;2024-01-30T08:20:10;11.30;99.90
24252;DHT22;12380;51.118;4.176;2024-01-30T08:22:40;11.20;99.90
24252;DHT22;12380;51.118;4.176;2024-01-30T08:25:06;11.10;99.90
24252;DHT22;12380;51.118;4.176;2024-01-30T08:27:31;11.20;99.90
24252;DHT22;12380;51.118;4.176;2024-01-30T08:29:57;11.00;99.90
24252;DHT22;12380;51.118;4.176;2024-01-30T08:32:22;11.10;99.90
24252;DHT22;12380;51.118;4.176;2024-01-30T08:34:49;11.20;99.90
24252;DHT22;12380;51.118;4.176;2024-01-30T08:37:14;11.30;99.90
24252;DHT22;12380;51.118;4.176;2024-01-30T08:39:42;11.30;99.90
24252;DHT22;12380;51.118;4.176;2024-01-30T08:42:08;11.30;99.90
24252;DHT22;12380;51.118;4.176;2024-01-30T08:44:33;11.30;99.90
24252;DHT22;12380;51.118;4.176;2024-01-30T08:47:02;11.40;99.90
24252;DHT22;12380;51.118;4.176;2024-01-30T08:49:30;11.30;99.90
24252;DHT22;12380;51.118;4.176;2024-01-30T08:51:55;11.30;99.90
24252;DHT22;12380;51.118;4.176;2024-01-30T08:54:21;11.40;99.90
24252;DHT22;12380;51.118;4.176;2024-01-30T08:56:46;11.40;99.90
24252;DHT22;12380;51.118;4.176;2024-01-30T08:59:12;11.30;99.90
24252;DHT22;12380;51.118;4.176;2024-01-30T09:01:37;11.30;99.90
24252;DHT22;12380;51.118;4.176;2024-01-30T09:04:03;11.40;99.90
24252;DHT22;12380;51.118;4.176;2024-01-30T09:06:29;11.40;99.90
24252;DHT22;12380;51.118;4.176;2024-01-30T09:08:54;11.40;99.90
24252;DHT22;12380;51.118;4.176;2024-01-30T09:11:22;11.50;99.90
24252;DHT22;12380;51.118;4.176;2024-01-30T09:13:48;11.50;99.90
24252;DHT22;12380;51.118;4.176;2024-01-30T09:16:13;11.50;99.90
24252;DHT22;12380;51.118;4.176;2024-01-30T09:18:41;11.40;99.90
24252;DHT22;12380;51.118;4.176;2024-01-30T09:21:07;11.50;99.90
24252;DHT22;12380;51.118;4.176;2024-01-30T09:23:32;11.50;99.90
24252;DHT22;12380;51.118;4.176;2024-01-30T09:25:58;11.50;99.90
24252;DHT22;12380;51.118;4.176;2024-01-30T09:28:24;11.50;99.90
24252;DHT22;12380;51.118;4.176;2024-01-30T09:30:50;11.60;99.90
24252;DHT22;12380;51.118;4.176;2024-01-30T09:33:15;11.70;99.90
24252;DHT22;12380;51.118;4.176;2024-01-30T09:35:41;11.70;99.90
24252;DHT22;12380;51.118;4.176;2024-01-30T09:38:07;11.70;99.90
24252;DHT22;12380;51.118;4.176;2024-01-30T09:40:32;11.70;99.90
24252;DHT22;12380;51.118;4.176;2024-01-30T09:42:58;11.80;99.90
24252;DHT22;12380;51.118;4.176;2024-01-30T09:45:26;11.70;99.90
24252;DHT22;12380;51.118;4.176;2024-01-30T09:47:52;11.80;99.90
24252;DHT22;12380;51.118;4.176;2024-01-30T09:50:18;11.80;99.90
24252;DHT22;12380;51.118;4.176;2024-01-30T09:52:47;11.80;99.90
24252;DHT22;12380;51.118;4.176;2024-01-30T09:55:15;11.90;99.90
24252;DHT22;12380;51.118;4.176;2024-01-30T09:57:41;11.80;99.90
24252;DHT22;12380;51.118;4.176;2024-01-30T10:00:07;11.80;99.90
24252;DHT22;12380;51.118;4.176;2024-01-30T10:02:36;11.80;99.90
24252;DHT22;12380;51.118;4.176;2024-01-30T10:05:02;11.70;99.90
24252;DHT22;12380;51.118;4.176;2024-01-30T10:07:30;11.80;99.90
24252;DHT22;12380;51.118;4.176;2024-01-30T10:09:56;11.90;99.90
24252;DHT22;12380;51.118;4.176;2024-01-30T10:12:29;11.90;99.90
24252;DHT22;12380;51.118;4.176;2024-01-30T10:14:55;12.10;99.90
24252;DHT22;12380;51.118;4.176;2024-01-30T10:17:21;12.00;99.90
24252;DHT22;12380;51.118;4.176;2024-01-30T10:19:50;12.10;99.90
24252;DHT22;12380;51.118;4.176;2024-01-30T10:22:16;12.10;1.00
24252;DHT22;12380;51.118;4.176;2024-01-30T10:24:42;11.80;1.00
24252;DHT22;12380;51.118;4.176;2024-01-30T10:27:08;11.80;1.00
24252;DHT22;12380;51.118;4.176;2024-01-30T10:29:34;11.50;1.00
24252;DHT22;12380;51.118;4.176;2024-01-30T10:32:03;11.50;1.00
24252;DHT22;12380;51.118;4.176;2024-01-30T10:34:29;11.60;99.90
24252;DHT22;12380;51.118;4.176;2024-01-30T10:39:23;11.90;83.00
24252;DHT22;12380;51.118;4.176;2024-01-30T10:41:50;11.80;93.90
24252;DHT22;12380;51.118;4.176;2024-01-30T10:44:19;11.80;1.00
24252;DHT22;12380;51.118;4.176;2024-01-30T10:46:49;11.80;1.00
24252;DHT22;12380;51.118;4.176;2024-01-30T10:49:16;11.90;1.00
24252;DHT22;12380;51.118;4.176;2024-01-30T10:51:42;11.80;99.90
24252;DHT22;12380;51.118;4.176;2024-01-30T10:54:10;11.70;1.00
24252;DHT22;12380;51.118;4.176;2024-01-30T10:56:39;11.90;1.00
24252;DHT22;12380;51.118;4.176;2024-01-30T10:59:05;11.60;1.00
24252;DHT22;12380;51.118;4.176;2024-01-30T11:01:33;11.70;35.70
24252;DHT22;12380;51.118;4.176;2024-01-30T11:04:00;12.00;1.00
24252;DHT22;12380;51.118;4.176;2024-01-30T11:06:25;12.20;1.00
24252;DHT22;12380;51.118;4.176;2024-01-30T11:09:04;12.80;1.00
24252;DHT22;12380;51.118;4.176;2024-01-30T11:11:48;13.60;99.90
24252;DHT22;12380;51.118;4.176;2024-01-30T11:14:13;14.10;1.00
24252;DHT22;12380;51.118;4.176;2024-01-30T11:16:39;14.10;1.00
24252;DHT22;12380;51.118;4.176;2024-01-30T11:19:07;13.70;1.00
24252;DHT22;12380;51.118;4.176;2024-01-30T11:21:41;13.10;1.00
24252;DHT22;12380;51.118;4.176;2024-01-30T11:24:06;12.90;99.90
24252;DHT22;12380;51.118;4.176;2024-01-30T11:26:35;12.80;1.00
24252;DHT22;12380;51.118;4.176;2024-01-30T11:29:03;12.80;1.00
24252;DHT22;12380;51.118;4.176;2024-01-30T11:31:32;12.80;1.00
24252;DHT22;12380;51.118;4.176;2024-01-30T11:33:57;12.80;1.00
24252;DHT22;12380;51.118;4.176;2024-01-30T11:36:25;13.00;55.40
24252;DHT22;12380;51.118;4.176;2024-01-30T11:38:50;12.80;99.90
24252;DHT22;12380;51.118;4.176;2024-01-30T11:41:17;12.80;1.00
24252;DHT22;12380;51.118;4.176;2024-01-30T11:43:54;12.70;99.90
24252;DHT22;12380;51.118;4.176;2024-01-30T11:46:19;12.90;99.90
24252;DHT22;12380;51.118;4.176;2024-01-30T11:48:45;12.80;1.00
24252;DHT22;12380;51.118;4.176;2024-01-30T11:51:12;12.90;1.00
24252;DHT22;12380;51.118;4.176;2024-01-30T11:53:38;12.40;1.00
24252;DHT22;12380;51.118;4.176;2024-01-30T11:56:05;12.30;1.00
24252;DHT22;12380;51.118;4.176;2024-01-30T11:58:31;12.30;99.90
24252;DHT22;12380;51.118;4.176;2024-01-30T12:00:56;12.30;1.00
24252;DHT22;12380;51.118;4.176;2024-01-30T12:03:22;12.20;18.50
24252;DHT22;12380;51.118;4.176;2024-01-30T12:05:54;12.00;95.40
24252;DHT22;12380;51.118;4.176;2024-01-30T12:08:20;12.10;99.90
24252;DHT22;12380;51.118;4.176;2024-01-30T12:10:46;12.10;99.90
24252;DHT22;12380;51.118;4.176;2024-01-30T12:13:11;12.20;99.90
24252;DHT22;12380;51.118;4.176;2024-01-30T12:15:38;12.30;99.90
24252;DHT22;12380;51.118;4.176;2024-01-30T12:18:04;12.40;1.00
24252;DHT22;12380;51.118;4.176;2024-01-30T12:20:30;12.10;99.90
24252;DHT22;12380;51.118;4.176;2024-01-30T12:22:56;12.00;99.90
24252;DHT22;12380;51.118;4.176;2024-01-30T12:25:21;11.90;99.90
24252;DHT22;12380;51.118;4.176;2024-01-30T12:27:50;11.80;1.00
24252;DHT22;12380;51.118;4.176;2024-01-30T12:30:19;11.90;99.90
24252;DHT22;12380;51.118;4.176;2024-01-30T12:32:46;11.70;99.90
24252;DHT22;12380;51.118;4.176;2024-01-30T12:35:15;11.70;1.00
24252;DHT22;12380;51.118;4.176;2024-01-30T12:37:42;11.60;1.00
24252;DHT22;12380;51.118;4.176;2024-01-30T12:40:08;11.50;1.00
24252;DHT22;12380;51.118;4.176;2024-01-30T12:42:34;11.50;1.00
24252;DHT22;12380;51.118;4.176;2024-01-30T12:45:01;11.50;1.00
24252;DHT22;12380;51.118;4.176;2024-01-30T12:47:27;11.30;1.00
24252;DHT22;12380;51.118;4.176;2024-01-30T12:49:52;11.20;38.20
24252;DHT22;12380;51.118;4.176;2024-01-30T12:52:19;11.00;99.90
24252;DHT22;12380;51.118;4.176;2024-01-30T12:54:45;10.90;99.90
24252;DHT22;12380;51.118;4.176;2024-01-30T12:57:10;11.00;99.90
24252;DHT22;12380;51.118;4.176;2024-01-30T12:59:39;10.80;99.90
24252;DHT22;12380;51.118;4.176;2024-01-30T13:02:04;10.90;99.90
24252;DHT22;12380;51.118;4.176;2024-01-30T13:04:33;10.70;1.00
24252;DHT22;12380;51.118;4.176;2024-01-30T13:07:02;10.70;1.00
24252;DHT22;12380;51.118;4.176;2024-01-30T13:09:30;10.60;1.00
24252;DHT22;12380;51.118;4.176;2024-01-30T13:11:57;10.70;1.00
24252;DHT22;12380;51.118;4.176;2024-01-30T13:14:22;10.70;1.00
24252;DHT22;12380;51.118;4.176;2024-01-30T13:16:48;10.60;1.00
24252;DHT22;12380;51.118;4.176;2024-01-30T13:19:13;10.60;1.00
24252;DHT22;12380;51.118;4.176;2024-01-30T13:21:39;10.50;1.00
24252;DHT22;12380;51.118;4.176;2024-01-30T13:24:07;10.50;1.00
24252;DHT22;12380;51.118;4.176;2024-01-30T13:26:36;10.40;1.00
24252;DHT22;12380;51.118;4.176;2024-01-30T13:29:01;10.50;1.00
24252;DHT22;12380;51.118;4.176;2024-01-30T13:31:30;10.50;99.90
24252;DHT22;12380;51.118;4.176;2024-01-30T13:33:56;10.60;99.90
24252;DHT22;12380;51.118;4.176;2024-01-30T13:36:21;10.50;99.90
24252;DHT22;12380;51.118;4.176;2024-01-30T13:38:47;10.50;99.90
24252;DHT22;12380;51.118;4.176;2024-01-30T13:41:13;10.50;99.90
24252;DHT22;12380;51.118;4.176;2024-01-30T13:43:38;10.40;99.90
24252;DHT22;12380;51.118;4.176;2024-01-30T13:46:04;10.40;99.90
24252;DHT22;12380;51.118;4.176;2024-01-30T13:48:30;10.30;99.90
24252;DHT22;12380;51.118;4.176;2024-01-30T13:50:56;10.20;1.00
24252;DHT22;12380;51.118;4.176;2024-01-30T13:53:24;10.40;99.90
24252;DHT22;12380;51.118;4.176;2024-01-30T13:55:50;10.30;1.00
24252;DHT22;12380;51.118;4.176;2024-01-30T13:58:17;10.30;99.90
24252;DHT22;12380;51.118;4.176;2024-01-30T14:00:43;10.20;99.90
24252;DHT22;12380;51.118;4.176;2024-01-30T14:03:08;10.20;99.90
24252;DHT22;12380;51.118;4.176;2024-01-30T14:05:34;10.30;99.90
24252;DHT22;12380;51.118;4.176;2024-01-30T14:08:00;10.30;99.90
24252;DHT22;12380;51.118;4.176;2024-01-30T14:10:26;10.30;99.90
24252;DHT22;12380;51.118;4.176;2024-01-30T14:12:51;10.10;99.90
24252;DHT22;12380;51.118;4.176;2024-01-30T14:15:17;10.10;1.00
24252;DHT22;12380;51.118;4.176;2024-01-30T14:17:49;10.10;99.90
24252;DHT22;12380;51.118;4.176;2024-01-30T14:20:15;10.10;1.00
24252;DHT22;12380;51.118;4.176;2024-01-30T14:22:44;10.10;1.00
24252;DHT22;12380;51.118;4.176;2024-01-30T14:25:09;10.10;1.00
24252;DHT22;12380;51.118;4.176;2024-01-30T14:27:35;10.10;1.00
24252;DHT22;12380;51.118;4.176;2024-01-30T14:30:03;10.10;1.00
24252;DHT22;12380;51.118;4.176;2024-01-30T14:32:29;10.00;1.00
24252;DHT22;12380;51.118;4.176;2024-01-30T14:34:55;10.00;1.00
24252;DHT22;12380;51.118;4.176;2024-01-30T14:37:21;10.00;1.00
24252;DHT22;12380;51.118;4.176;2024-01-30T14:39:47;10.00;1.00
24252;DHT22;12380;51.118;4.176;2024-01-30T14:42:16;10.00;1.00
24252;DHT22;12380;51.118;4.176;2024-01-30T14:44:41;9.80;1.00
24252;DHT22;12380;51.118;4.176;2024-01-30T14:47:07;9.80;1.00
24252;DHT22;12380;51.118;4.176;2024-01-30T14:49:33;9.90;1.00
24252;DHT22;12380;51.118;4.176;2024-01-30T14:51:59;9.80;1.00
24252;DHT22;12380;51.118;4.176;2024-01-30T14:54:26;9.90;1.00
24252;DHT22;12380;51.118;4.176;2024-01-30T14:56:51;10.00;1.00
24252;DHT22;12380;51.118;4.176;2024-01-30T14:59:17;10.00;1.00
24252;DHT22;12380;51.118;4.176;2024-01-30T15:01:42;9.90;1.00
24252;DHT22;12380;51.118;4.176;2024-01-30T15:04:09;9.80;1.00
24252;DHT22;12380;51.118;4.176;2024-01-30T15:06:35;9.80;1.00
24252;DHT22;12380;51.118;4.176;2024-01-30T15:09:00;9.70;1.00
24252;DHT22;12380;51.118;4.176;2024-01-30T15:11:26;9.60;1.00
24252;DHT22;12380;51.118;4.176;2024-01-30T15:13:51;9.50;1.00
24252;DHT22;12380;51.118;4.176;2024-01-30T15:16:17;9.50;1.00
24252;DHT22;12380;51.118;4.176;2024-01-30T15:18:43;9.60;1.00
24252;DHT22;12380;51.118;4.176;2024-01-30T15:21:09;9.70;1.00
24252;DHT22;12380;51.118;4.176;2024-01-30T15:23:35;9.80;1.00
24252;DHT22;12380;51.118;4.176;2024-01-30T15:26:00;9.70;1.00
24252;DHT22;12380;51.118;4.176;2024-01-30T15:28:38;9.70;1.00
24252;DHT22;12380;51.118;4.176;2024-01-30T15:31:04;9.60;1.00
24252;DHT22;12380;51.118;4.176;2024-01-30T15:33:29;9.50;17.50
24252;DHT22;12380;51.118;4.176;2024-01-30T15:35:56;9.30;78.50